Sedgwick Reserve, California Weather observations

Data are for 10 minute period ending at time listed.
 Day   Time   Solar   Ave.   Ave.  Ave.  Vector  Max.   Baro.   Total    
  of    of     Rad.   Air    Rel.  Wind   Wind   Wind  Press.  Precip.   
Year   Day            Temp.  Hum.  Speed  Dir.   Gust                    
2015   (PST)  Kw/m2    F      %     mph   deg.    mph    mb.     in.     
-------------------------------------------------------------------------
  90   13:20   0.82   77.2    30   16.0   284    24.1   973.5    0.00 
  90   13:30   0.81   76.2    31   16.1   278    25.2   973.4    0.00 
  90   13:40   0.80   76.2    31   16.3   275    25.6   973.2    0.00 
  90   13:50   0.78   75.5    32   19.5   276    27.3   973.0    0.00 
  90   14:00   0.76   75.0    33   19.5   277    29.5   973.0    0.00 
  90   14:10   0.75   75.4    33   18.2   274    27.2   972.8    0.00 
  90   14:20   0.73   75.7    33   16.3   278    27.0   972.7    0.00 
  90   14:30   0.71   74.6    35   19.4   276    27.8   972.6    0.00 
  90   14:40   0.68   74.8    35   16.4   276    24.8   972.5    0.00 
  90   14:50   0.66   74.7    36   15.9   275    25.9   972.5    0.00 
  90   15:00   0.63   74.6    37   17.4   278    27.8   972.5    0.00 
  90   15:10   0.60   72.0    40   19.8   274    29.3   972.4    0.00 
  90   15:20   0.57   72.5    39   16.6   275    29.3   972.4    0.00 
  90   15:30   0.54   72.2    40   17.1   275    25.1   972.4    0.00 
  90   15:40   0.51   71.4    42   18.4   272    26.2   972.3    0.00 
  90   15:50   0.47   71.4    42   17.8   278    27.0   972.2    0.00 
  90   16:00   0.44   71.7    42   15.0   276    25.8   972.2    0.00 
  90   16:10   0.41   71.0    43   18.8   278    27.5   972.2    0.00 
  90   16:20   0.38   70.1    45   17.4   274    27.0   972.1    0.00 
  90   16:30   0.34   69.4    46   17.7   274    27.3   972.0    0.00 
  90   16:40   0.30   68.9    47   16.2   279    26.2   972.1    0.00 
  90   16:50   0.27   67.8    48   16.8   277    25.9   972.0    0.00 
  90   17:00   0.23   67.0    50   16.2   278    27.1   972.1    0.00 
  90   17:10   0.19   66.1    51   16.7   275    25.2   972.1    0.00 
  90   17:20   0.16   65.3    52   14.3   280    24.4   972.3    0.00 
  90   17:30   0.12   64.7    53    8.1   309    17.8   972.4    0.00 
  90   17:40   0.09   64.2    54    9.2   302    16.7   972.3    0.00 
  90   17:50   0.07   63.1    57   10.7   294    19.7   972.3    0.00 
  90   18:00   0.04   62.0    59   11.2   293    20.0   972.4    0.00 
  90   18:10   0.02   60.9    61    7.8   311    16.1   972.6    0.00 
  90   18:20   0.01   60.1    62    3.8   320     8.0   972.7    0.00 
  90   18:30   0.00   59.4    64    3.8   334     7.9   972.7    0.00 
  90   18:40   0.00   58.8    65    4.7   297    10.8   972.7    0.00 
  90   18:50   0.00   57.9    66    4.9   299     8.5   972.8    0.00 
  90   19:00   0.00   57.4    66    3.8   322     7.8   972.8    0.00 
  90   19:10   0.00   57.2    66    3.0   326     7.0   973.0    0.00 
  90   19:20   0.00   57.0    67    1.7   346     5.1   973.1    0.00 
  90   19:30   0.00   56.5    68    0.6   279     2.4   973.2    0.00 
  90   19:40   0.00   55.8    69    1.5   142     3.5   973.3    0.00 
  90   19:50   0.00   54.8    70    1.6   116     3.7   973.3    0.00 
  90   20:00   0.00   53.5    73    0.8   228     3.2   973.3    0.00 
  90   20:10   0.00   52.8    75    1.3   309     2.9   973.5    0.00 
  90   20:20   0.00   52.0    76    2.1   343     4.5   973.6    0.00 
  90   20:30   0.00   51.0    78    2.6     1     4.3   973.6    0.00 
  90   20:40   0.00   50.6    78    1.7   266     5.5   973.6    0.00 
  90   20:50   0.00   50.5    77    2.1   267     4.7   973.6    0.00 
  90   21:00   0.00   49.6    79    1.7   196     5.0   973.7    0.00 
  90   21:10   0.00   49.0    81    1.8   220     3.9   973.8    0.00 
  90   21:20   0.00   48.9    80    1.9   206     3.9   974.0    0.00 
  90   21:30   0.00   49.0    81    2.1    79     5.2   974.2    0.00 
  90   21:40   0.00   48.9    82    2.1   108     4.0   974.3    0.00 
  90   21:50   0.00   48.7    82    1.7   163     2.9   974.4    0.00 
  90   22:00   0.00   48.9    81    1.6   172     3.9   974.4    0.00 
  90   22:10   0.00   47.9    83    2.5   186     5.1   974.4    0.00 
  90   22:20   0.00   47.6    83    2.4   137     5.3   974.5    0.00 
  90   22:30   0.00   47.8    83    3.0   123     5.8   974.5    0.00 
  90   22:40   0.00   47.5    83    1.9   120     5.4   974.5    0.00 
  90   22:50   0.00   47.1    84    1.7   164     4.0   974.6    0.00 
  90   23:00   0.00   47.0    84    2.6   153     5.2   974.6    0.00 
  90   23:10   0.00   47.2    83    3.0   157     5.6   974.4    0.00 
  90   23:20   0.00   46.8    82    3.5   172     9.1   974.3    0.00 
  90   23:30   0.00   48.1    76    2.4   253     6.7   974.2    0.00 
  90   23:40   0.00   52.2    62    3.9    32    11.2   974.1    0.00 
  90   23:50   0.00   48.5    75    2.9   165     8.0   974.0    0.00 
  91    0:00   0.00   51.1    67    4.6   135     8.9   974.0    0.00 
  91    0:10   0.00   48.5    77    4.8   147    10.7   974.0    0.00 
  91    0:20   0.00   47.5    82    3.3   138     6.0   974.2    0.00 
  91    0:30   0.00   47.0    84    3.7   133     9.5   974.1    0.00 
  91    0:40   0.00   47.0    84    4.2   139     7.5   974.2    0.00 
  91    0:50   0.00   46.2    85    3.5   159     7.4   974.2    0.00 
  91    1:00   0.00   47.2    79    3.9   248     7.2   974.3    0.00 
  91    1:10   0.00   47.6    77    3.0   166     6.4   974.3    0.00 
  91    1:20   0.00   48.0    76    2.6   162     7.8   974.1    0.00 
  91    1:30   0.00   47.3    79    3.7   118     8.1   974.0    0.00 
  91    1:40   0.00   46.3    83    3.5   206     7.6   973.9    0.00 
  91    1:50   0.00   49.5    68    4.5   196     8.4   973.7    0.00 
  91    2:00   0.00   49.6    68    2.9   125     6.5   973.5    0.00 
  91    2:10   0.00   51.0    65    2.1   214     5.6   973.3    0.00 
  91    2:20   0.00   51.4    59    4.3   251     9.4   973.3    0.00 
  91    2:30   0.00   57.3    46    6.0   288    12.1   973.2    0.00 
  91    2:40   0.00   59.0    44    4.9   153     9.9   973.2    0.00 
  91    2:50   0.00   57.0    46    5.3   246    11.2   973.1    0.00 
  91    3:00   0.00   59.7    40    5.1   291     9.1   973.2    0.00 
  91    3:10   0.00   59.6    40    4.4   214     7.9   972.9    0.00 
  91    3:20   0.00   59.8    38    3.0   206     7.5   972.7    0.00 
  91    3:30   0.00   60.0    36    3.3   225     7.0   972.6    0.00 
  91    3:40   0.00   60.2    34    3.6   212     9.9   972.5    0.00 
  91    3:50   0.00   60.2    32    4.0    67    12.3   972.5    0.00 
  91    4:00   0.00   60.1    30    5.7    20    14.0   972.5    0.00 
  91    4:10   0.00   60.5    28    6.8    27    17.5   972.4    0.00 
  91    4:20   0.00   60.0    29    3.6    30     8.5   972.2    0.00 
  91    4:30   0.00   59.6    28    2.9   307    10.7   972.1    0.00 
  91    4:40   0.00   60.5    26    3.4   291     8.7   972.2    0.00 
  91    4:50   0.00   60.4    25    3.5   323     8.6   972.1    0.00 
  91    5:00   0.00   60.4    25    7.4   358    18.8   972.2    0.00 
  91    5:10   0.00   60.4    24    5.8   344    11.9   972.3    0.00 
  91    5:20   0.00   54.5    45    3.0    95     8.7   972.6    0.00 
  91    5:30   0.00   52.6    44    4.9     2    11.7   972.9    0.00 
  91    5:40   0.00   57.6    30    5.1   353    13.7   973.2    0.00 
  91    5:50   0.00   54.2    42    3.5    66     7.7   973.4    0.00 
  91    6:00   0.01   54.4    35    4.4    33    16.7   973.5    0.00 
  91    6:10   0.02   58.1    26    3.8    34     8.8   973.7    0.00 
  91    6:20   0.06   59.7    23    6.2   354    13.9   973.6    0.00 
  91    6:30   0.09   60.4    22    5.7   358    20.0   973.7    0.00 
  91    6:40   0.11   61.8    20    8.4     6    19.4   973.7    0.00 
  91    6:50   0.15   62.2    20    5.5    18    12.4   973.8    0.00 
  91    7:00   0.11   62.3    19    6.8     4    16.7   973.6    0.00 
  91    7:10   0.21   62.4    19   12.5    11    31.8   973.5    0.00 
  91    7:20   0.23   63.1    18   12.5    16    27.2   973.5    0.00 
  91    7:30   0.25   63.3    18   11.9     1    21.0   973.5    0.00 
  91    7:40   0.32   64.5    19    5.7    31    18.8   973.6    0.00 
  91    7:50   0.36   63.0    31    4.5   121     8.8   973.7    0.00 
  91    8:00   0.39   62.7    30    3.4   140     9.4   973.9    0.00 
  91    8:10   0.43   62.6    34    4.1   116     6.6   974.0    0.00 
  91    8:20   0.47   63.6    32    2.8   106     5.0   974.0    0.00 
  91    8:30   0.51   66.1    26    5.3   116     9.1   973.9    0.00 
  91    8:40   0.49   65.0    22    6.7   140    13.0   974.0    0.00 
  91    8:50   0.54   67.0    21    5.0   130     8.7   974.2    0.00 
  91    9:00   0.59   67.5    19    5.7   150     9.7   974.3    0.00 
  91    9:10   0.63   69.0    18    3.9   126     7.9   974.4    0.00 
  91    9:20   0.66   69.4    14    4.9   136    14.4   974.6    0.00 
  91    9:30   0.69   72.1    13    7.5    74    13.7   974.6    0.00 
  91    9:40   0.71   73.1    12    8.2    59    17.8   974.7    0.00 
  91    9:50   0.74   73.4    11    6.8    61    15.1   974.6    0.00 
  91   10:00   0.76   73.8    11    7.0    50    14.7   974.7    0.00 
  91   10:10   0.79   74.8    11    7.7    52    14.8   974.6    0.00 
  91   10:20   0.80   73.8    11    5.5    56    11.6   974.8    0.00 
  91   10:30   0.82   73.7    10    5.0    26    13.2   974.8    0.00 
  91   10:40   0.84   74.1    10   12.6   352    22.6   974.7    0.00 
  91   10:50   0.86   73.6    11   10.9   355    22.0   974.5    0.00 
  91   11:00   0.87   73.1    12   12.8   357    20.5   974.4    0.00 
  91   11:10   0.88   73.8    12   11.7     1    20.3   974.2    0.00 
  91   11:20   0.89   74.1    12    9.6   356    16.4   974.0    0.00 
  91   11:30   0.87   74.9    11    8.9   358    19.1   973.9    0.00 
  91   11:40   0.90   74.7    11    9.2     2    18.1   973.7    0.00 
  91   11:50   0.91   75.2    11   11.8    18    19.5   973.6    0.00 
  91   12:00   0.91   75.8    11   11.4    21    20.9   973.4    0.00 
  91   12:10   0.91   76.2    11   10.1    25    19.4   973.1    0.00 
  91   12:20   0.91   76.5    11   10.3    23    17.4   973.0    0.00 
  91   12:30   0.90   77.4    11    9.6    32    17.4   972.8    0.00 
  91   12:40   0.90   77.4    10    7.3    18    14.4   972.6    0.00 
  91   12:50   0.88   78.3    10    6.1   325    11.8   972.5    0.00 
  91   13:00   0.88   78.4    10    4.8   347    16.3   972.4    0.00 
  91   13:10   0.86   79.0    10    7.7   360    16.0   972.1    0.00 

Return to Sedgwick Reserve graphs page.


Western Regional Climate Center,wrcc@dri.edu